East Dereham, United Kingdom
Current Conditions -  °F | °C
As of 1:20 AM on Sunday 23 Nov 2014 (Local Time) from EGSH Reporting Station
Haze Haze  
Wind Chill: 54°   Ceiling: 100
Heat Index: 54°   Visibility: 0.81mi
Dew Point: 54°   Wind: 3mph
Humidity: 100%   Direction: NA
Pressure: 29.97"   Gusts: NA
Location:  52.68°N, 0.93°E
Report Text: EGSH 230120Z AUTO VRB03KT 1300 BR OVC001/// 12/12 Q1015
Loading
Personal Weather Stations






























Interactive Weather Map New forecast layout! Learn more

10-Day Weather Forecast

Advertisements
Track Severe Weather on mobile